sensor_id;sensor_type;location;lat;lon;timestamp;P1;durP1;ratioP1;P2;durP2;ratioP2
18740;SDS011;9499;52.472;13.448;2023-05-07T00:00:07;5.10;;;3.23;;
18740;SDS011;9499;52.472;13.448;2023-05-07T00:02:34;4.87;;;3.63;;
18740;SDS011;9499;52.472;13.448;2023-05-07T00:05:01;5.43;;;4.90;;
18740;SDS011;9499;52.472;13.448;2023-05-07T00:07:28;5.07;;;3.90;;
18740;SDS011;9499;52.472;13.448;2023-05-07T00:09:55;6.23;;;3.70;;
18740;SDS011;9499;52.472;13.448;2023-05-07T00:12:21;3.37;;;2.80;;
18740;SDS011;9499;52.472;13.448;2023-05-07T00:14:48;5.03;;;4.00;;
18740;SDS011;9499;52.472;13.448;2023-05-07T00:17:14;4.17;;;3.17;;
18740;SDS011;9499;52.472;13.448;2023-05-07T00:19:41;3.40;;;3.10;;
18740;SDS011;9499;52.472;13.448;2023-05-07T00:22:09;3.30;;;3.00;;
18740;SDS011;9499;52.472;13.448;2023-05-07T00:24:35;6.83;;;3.30;;
18740;SDS011;9499;52.472;13.448;2023-05-07T00:27:02;8.77;;;6.10;;
18740;SDS011;9499;52.472;13.448;2023-05-07T00:29:28;3.80;;;3.50;;
18740;SDS011;9499;52.472;13.448;2023-05-07T00:31:55;7.13;;;3.83;;
18740;SDS011;9499;52.472;13.448;2023-05-07T00:34:21;5.80;;;4.20;;
18740;SDS011;9499;52.472;13.448;2023-05-07T00:36:48;5.70;;;4.53;;
18740;SDS011;9499;52.472;13.448;2023-05-07T00:39:16;5.73;;;4.40;;
18740;SDS011;9499;52.472;13.448;2023-05-07T00:41:42;6.73;;;3.50;;
18740;SDS011;9499;52.472;13.448;2023-05-07T00:44:09;4.97;;;4.47;;
18740;SDS011;9499;52.472;13.448;2023-05-07T00:46:35;3.63;;;2.57;;
18740;SDS011;9499;52.472;13.448;2023-05-07T00:49:02;6.03;;;4.07;;
18740;SDS011;9499;52.472;13.448;2023-05-07T00:51:28;8.03;;;4.00;;
18740;SDS011;9499;52.472;13.448;2023-05-07T00:53:55;3.73;;;2.70;;
18740;SDS011;9499;52.472;13.448;2023-05-07T00:56:23;5.03;;;4.50;;
18740;SDS011;9499;52.472;13.448;2023-05-07T00:58:50;4.40;;;3.97;;
18740;SDS011;9499;52.472;13.448;2023-05-07T01:01:17;4.93;;;4.53;;
18740;SDS011;9499;52.472;13.448;2023-05-07T01:03:43;4.20;;;2.73;;
18740;SDS011;9499;52.472;13.448;2023-05-07T01:06:10;4.10;;;3.00;;
18740;SDS011;9499;52.472;13.448;2023-05-07T01:08:41;6.13;;;4.60;;
18740;SDS011;9499;52.472;13.448;2023-05-07T01:11:08;4.40;;;4.10;;
18740;SDS011;9499;52.472;13.448;2023-05-07T01:13:37;3.70;;;3.10;;
18740;SDS011;9499;52.472;13.448;2023-05-07T01:16:05;4.10;;;3.50;;
18740;SDS011;9499;52.472;13.448;2023-05-07T01:18:32;4.57;;;3.30;;
18740;SDS011;9499;52.472;13.448;2023-05-07T01:20:59;6.60;;;3.67;;
18740;SDS011;9499;52.472;13.448;2023-05-07T01:23:31;13.63;;;4.23;;
18740;SDS011;9499;52.472;13.448;2023-05-07T01:26:00;4.73;;;3.50;;
18740;SDS011;9499;52.472;13.448;2023-05-07T01:28:26;5.27;;;4.20;;
18740;SDS011;9499;52.472;13.448;2023-05-07T01:30:53;4.80;;;4.40;;
18740;SDS011;9499;52.472;13.448;2023-05-07T01:33:22;4.47;;;4.07;;
18740;SDS011;9499;52.472;13.448;2023-05-07T01:35:50;5.00;;;4.17;;
18740;SDS011;9499;52.472;13.448;2023-05-07T01:38:19;4.63;;;4.17;;
18740;SDS011;9499;52.472;13.448;2023-05-07T01:40:48;3.83;;;3.00;;
18740;SDS011;9499;52.472;13.448;2023-05-07T01:43:15;3.53;;;3.23;;
18740;SDS011;9499;52.472;13.448;2023-05-07T01:45:42;3.70;;;3.40;;
18740;SDS011;9499;52.472;13.448;2023-05-07T01:48:10;3.10;;;2.80;;
18740;SDS011;9499;52.472;13.448;2023-05-07T01:50:38;4.07;;;3.00;;
18740;SDS011;9499;52.472;13.448;2023-05-07T01:53:05;4.80;;;2.73;;
18740;SDS011;9499;52.472;13.448;2023-05-07T01:55:32;5.07;;;3.73;;
18740;SDS011;9499;52.472;13.448;2023-05-07T01:58:00;2.60;;;2.40;;
18740;SDS011;9499;52.472;13.448;2023-05-07T02:00:26;3.33;;;3.03;;
18740;SDS011;9499;52.472;13.448;2023-05-07T02:02:53;3.57;;;3.20;;
18740;SDS011;9499;52.472;13.448;2023-05-07T02:05:20;2.87;;;2.67;;
18740;SDS011;9499;52.472;13.448;2023-05-07T02:07:47;4.03;;;3.43;;
18740;SDS011;9499;52.472;13.448;2023-05-07T02:10:13;4.90;;;3.10;;
18740;SDS011;9499;52.472;13.448;2023-05-07T02:12:40;4.00;;;2.93;;
18740;SDS011;9499;52.472;13.448;2023-05-07T02:15:09;5.37;;;4.40;;
18740;SDS011;9499;52.472;13.448;2023-05-07T02:17:38;4.80;;;4.13;;
18740;SDS011;9499;52.472;13.448;2023-05-07T02:20:23;4.63;;;4.03;;
18740;SDS011;9499;52.472;13.448;2023-05-07T02:22:50;4.97;;;2.90;;
18740;SDS011;9499;52.472;13.448;2023-05-07T02:25:16;5.63;;;3.60;;
18740;SDS011;9499;52.472;13.448;2023-05-07T02:27:42;4.30;;;3.73;;
18740;SDS011;9499;52.472;13.448;2023-05-07T02:30:11;5.07;;;4.47;;
18740;SDS011;9499;52.472;13.448;2023-05-07T02:32:38;2.90;;;2.70;;
18740;SDS011;9499;52.472;13.448;2023-05-07T02:35:04;6.97;;;3.93;;
18740;SDS011;9499;52.472;13.448;2023-05-07T02:37:31;4.37;;;3.17;;
18740;SDS011;9499;52.472;13.448;2023-05-07T02:39:58;2.80;;;2.53;;
18740;SDS011;9499;52.472;13.448;2023-05-07T02:42:24;5.10;;;3.00;;
18740;SDS011;9499;52.472;13.448;2023-05-07T02:44:51;5.97;;;4.30;;
18740;SDS011;9499;52.472;13.448;2023-05-07T02:47:18;6.70;;;3.43;;
18740;SDS011;9499;52.472;13.448;2023-05-07T02:49:45;4.93;;;4.40;;
18740;SDS011;9499;52.472;13.448;2023-05-07T02:52:11;4.60;;;3.77;;
18740;SDS011;9499;52.472;13.448;2023-05-07T02:54:38;6.77;;;3.93;;
18740;SDS011;9499;52.472;13.448;2023-05-07T02:57:05;3.30;;;2.47;;
18740;SDS011;9499;52.472;13.448;2023-05-07T02:59:31;5.43;;;4.70;;
18740;SDS011;9499;52.472;13.448;2023-05-07T03:01:57;2.90;;;2.70;;
18740;SDS011;9499;52.472;13.448;2023-05-07T03:04:25;4.67;;;4.10;;
18740;SDS011;9499;52.472;13.448;2023-05-07T03:06:52;5.17;;;4.20;;
18740;SDS011;9499;52.472;13.448;2023-05-07T03:09:18;3.80;;;3.17;;
18740;SDS011;9499;52.472;13.448;2023-05-07T03:11:45;3.40;;;3.00;;
18740;SDS011;9499;52.472;13.448;2023-05-07T03:14:11;4.03;;;3.13;;
18740;SDS011;9499;52.472;13.448;2023-05-07T03:16:39;3.13;;;2.73;;
18740;SDS011;9499;52.472;13.448;2023-05-07T03:19:06;8.13;;;3.10;;
18740;SDS011;9499;52.472;13.448;2023-05-07T03:21:34;3.53;;;2.70;;
18740;SDS011;9499;52.472;13.448;2023-05-07T03:24:00;2.57;;;1.90;;
18740;SDS011;9499;52.472;13.448;2023-05-07T03:26:27;3.70;;;2.57;;
18740;SDS011;9499;52.472;13.448;2023-05-07T03:28:54;3.20;;;2.57;;
18740;SDS011;9499;52.472;13.448;2023-05-07T03:31:21;2.83;;;2.63;;
18740;SDS011;9499;52.472;13.448;2023-05-07T03:33:50;5.90;;;3.87;;
18740;SDS011;9499;52.472;13.448;2023-05-07T03:36:17;7.30;;;4.63;;
18740;SDS011;9499;52.472;13.448;2023-05-07T03:38:45;6.07;;;3.83;;
18740;SDS011;9499;52.472;13.448;2023-05-07T03:41:12;8.10;;;4.37;;
18740;SDS011;9499;52.472;13.448;2023-05-07T03:43:39;3.83;;;3.37;;
18740;SDS011;9499;52.472;13.448;2023-05-07T03:46:05;5.03;;;3.70;;
18740;SDS011;9499;52.472;13.448;2023-05-07T03:48:32;6.13;;;4.17;;
18740;SDS011;9499;52.472;13.448;2023-05-07T03:50:59;4.30;;;3.80;;
18740;SDS011;9499;52.472;13.448;2023-05-07T03:53:25;4.23;;;3.83;;
18740;SDS011;9499;52.472;13.448;2023-05-07T03:55:53;3.37;;;3.07;;
18740;SDS011;9499;52.472;13.448;2023-05-07T03:58:19;4.53;;;3.30;;
18740;SDS011;9499;52.472;13.448;2023-05-07T04:00:46;5.33;;;3.10;;
18740;SDS011;9499;52.472;13.448;2023-05-07T04:03:13;3.83;;;3.43;;
18740;SDS011;9499;52.472;13.448;2023-05-07T04:05:40;4.07;;;3.67;;
18740;SDS011;9499;52.472;13.448;2023-05-07T04:08:06;3.97;;;3.60;;
18740;SDS011;9499;52.472;13.448;2023-05-07T04:10:33;7.30;;;4.83;;
18740;SDS011;9499;52.472;13.448;2023-05-07T04:13:01;4.33;;;3.53;;
18740;SDS011;9499;52.472;13.448;2023-05-07T04:15:27;5.73;;;3.43;;
18740;SDS011;9499;52.472;13.448;2023-05-07T04:17:53;6.90;;;3.10;;
18740;SDS011;9499;52.472;13.448;2023-05-07T04:20:20;4.50;;;2.90;;
18740;SDS011;9499;52.472;13.448;2023-05-07T04:22:46;2.60;;;2.40;;
18740;SDS011;9499;52.472;13.448;2023-05-07T04:25:13;4.47;;;3.93;;
18740;SDS011;9499;52.472;13.448;2023-05-07T04:27:40;6.20;;;3.90;;
18740;SDS011;9499;52.472;13.448;2023-05-07T04:30:08;3.83;;;3.50;;
18740;SDS011;9499;52.472;13.448;2023-05-07T04:32:35;2.80;;;2.60;;
18740;SDS011;9499;52.472;13.448;2023-05-07T04:35:02;3.33;;;3.07;;
18740;SDS011;9499;52.472;13.448;2023-05-07T04:37:29;3.70;;;3.13;;
18740;SDS011;9499;52.472;13.448;2023-05-07T04:39:57;4.63;;;2.93;;
18740;SDS011;9499;52.472;13.448;2023-05-07T04:42:23;5.03;;;4.53;;
18740;SDS011;9499;52.472;13.448;2023-05-07T04:44:52;4.30;;;2.63;;
18740;SDS011;9499;52.472;13.448;2023-05-07T04:47:21;4.77;;;3.57;;
18740;SDS011;9499;52.472;13.448;2023-05-07T04:49:47;4.60;;;2.70;;
18740;SDS011;9499;52.472;13.448;2023-05-07T04:52:14;5.83;;;3.13;;
18740;SDS011;9499;52.472;13.448;2023-05-07T04:54:41;11.30;;;4.90;;
18740;SDS011;9499;52.472;13.448;2023-05-07T04:57:08;4.30;;;2.67;;
18740;SDS011;9499;52.472;13.448;2023-05-07T04:59:35;3.87;;;2.73;;
18740;SDS011;9499;52.472;13.448;2023-05-07T05:02:02;4.80;;;3.00;;
18740;SDS011;9499;52.472;13.448;2023-05-07T05:04:31;5.20;;;3.13;;
18740;SDS011;9499;52.472;13.448;2023-05-07T05:06:57;5.60;;;2.90;;
18740;SDS011;9499;52.472;13.448;2023-05-07T05:09:24;2.83;;;2.40;;
18740;SDS011;9499;52.472;13.448;2023-05-07T05:11:50;2.30;;;2.10;;
18740;SDS011;9499;52.472;13.448;2023-05-07T05:14:17;2.70;;;2.50;;
18740;SDS011;9499;52.472;13.448;2023-05-07T05:16:44;5.93;;;3.80;;
18740;SDS011;9499;52.472;13.448;2023-05-07T05:19:10;5.67;;;3.63;;
18740;SDS011;9499;52.472;13.448;2023-05-07T05:21:38;2.60;;;2.40;;
18740;SDS011;9499;52.472;13.448;2023-05-07T05:24:05;4.70;;;2.87;;
18740;SDS011;9499;52.472;13.448;2023-05-07T05:26:32;11.43;;;3.47;;
18740;SDS011;9499;52.472;13.448;2023-05-07T05:28:58;2.27;;;1.87;;
18740;SDS011;9499;52.472;13.448;2023-05-07T05:31:25;2.63;;;2.23;;
18740;SDS011;9499;52.472;13.448;2023-05-07T05:33:51;4.40;;;3.90;;
18740;SDS011;9499;52.472;13.448;2023-05-07T05:36:18;4.30;;;3.50;;
18740;SDS011;9499;52.472;13.448;2023-05-07T05:38:45;5.33;;;3.57;;
18740;SDS011;9499;52.472;13.448;2023-05-07T05:41:12;2.70;;;2.50;;
18740;SDS011;9499;52.472;13.448;2023-05-07T05:43:38;4.53;;;3.40;;
18740;SDS011;9499;52.472;13.448;2023-05-07T05:46:05;4.40;;;3.60;;
18740;SDS011;9499;52.472;13.448;2023-05-07T05:48:33;2.83;;;2.13;;
18740;SDS011;9499;52.472;13.448;2023-05-07T05:50:59;4.23;;;2.63;;
18740;SDS011;9499;52.472;13.448;2023-05-07T05:53:26;3.40;;;2.30;;
18740;SDS011;9499;52.472;13.448;2023-05-07T05:55:54;6.33;;;2.80;;
18740;SDS011;9499;52.472;13.448;2023-05-07T05:58:20;4.50;;;4.10;;
18740;SDS011;9499;52.472;13.448;2023-05-07T06:00:47;3.57;;;3.30;;
18740;SDS011;9499;52.472;13.448;2023-05-07T06:03:17;4.50;;;3.40;;
18740;SDS011;9499;52.472;13.448;2023-05-07T06:05:43;7.60;;;4.23;;
18740;SDS011;9499;52.472;13.448;2023-05-07T06:08:10;2.97;;;2.50;;
18740;SDS011;9499;52.472;13.448;2023-05-07T06:10:36;3.63;;;2.23;;
18740;SDS011;9499;52.472;13.448;2023-05-07T06:13:04;6.03;;;3.87;;
18740;SDS011;9499;52.472;13.448;2023-05-07T06:15:31;3.33;;;3.03;;
18740;SDS011;9499;52.472;13.448;2023-05-07T06:17:57;2.50;;;2.30;;
18740;SDS011;9499;52.472;13.448;2023-05-07T06:20:24;3.30;;;3.00;;
18740;SDS011;9499;52.472;13.448;2023-05-07T06:22:50;4.53;;;3.40;;
18740;SDS011;9499;52.472;13.448;2023-05-07T06:25:17;3.53;;;2.43;;
18740;SDS011;9499;52.472;13.448;2023-05-07T06:27:43;4.93;;;2.57;;
18740;SDS011;9499;52.472;13.448;2023-05-07T06:30:11;4.37;;;2.30;;
18740;SDS011;9499;52.472;13.448;2023-05-07T06:32:39;3.37;;;3.07;;
18740;SDS011;9499;52.472;13.448;2023-05-07T06:35:06;5.50;;;3.70;;
18740;SDS011;9499;52.472;13.448;2023-05-07T06:37:33;3.50;;;3.20;;
18740;SDS011;9499;52.472;13.448;2023-05-07T06:40:00;3.13;;;2.77;;
18740;SDS011;9499;52.472;13.448;2023-05-07T06:42:26;2.70;;;2.50;;
18740;SDS011;9499;52.472;13.448;2023-05-07T06:44:53;4.70;;;2.40;;
18740;SDS011;9499;52.472;13.448;2023-05-07T06:47:21;2.23;;;2.03;;
18740;SDS011;9499;52.472;13.448;2023-05-07T06:49:47;6.30;;;3.80;;
18740;SDS011;9499;52.472;13.448;2023-05-07T06:52:14;2.47;;;2.27;;
18740;SDS011;9499;52.472;13.448;2023-05-07T06:54:40;4.70;;;2.97;;
18740;SDS011;9499;52.472;13.448;2023-05-07T06:57:07;2.97;;;2.27;;
18740;SDS011;9499;52.472;13.448;2023-05-07T06:59:33;3.90;;;3.50;;
18740;SDS011;9499;52.472;13.448;2023-05-07T07:02:00;2.63;;;2.33;;
18740;SDS011;9499;52.472;13.448;2023-05-07T07:04:28;3.40;;;2.70;;
18740;SDS011;9499;52.472;13.448;2023-05-07T07:06:55;2.60;;;2.27;;
18740;SDS011;9499;52.472;13.448;2023-05-07T07:09:21;3.63;;;2.77;;
18740;SDS011;9499;52.472;13.448;2023-05-07T07:11:48;2.70;;;2.50;;
18740;SDS011;9499;52.472;13.448;2023-05-07T07:14:15;3.03;;;2.77;;
18740;SDS011;9499;52.472;13.448;2023-05-07T07:16:42;2.40;;;2.03;;
18740;SDS011;9499;52.472;13.448;2023-05-07T07:19:08;3.97;;;2.20;;
18740;SDS011;9499;52.472;13.448;2023-05-07T07:21:36;3.17;;;2.87;;
18740;SDS011;9499;52.472;13.448;2023-05-07T07:24:03;2.87;;;2.63;;
18740;SDS011;9499;52.472;13.448;2023-05-07T07:26:30;3.27;;;2.67;;
18740;SDS011;9499;52.472;13.448;2023-05-07T07:28:57;3.80;;;2.57;;
18740;SDS011;9499;52.472;13.448;2023-05-07T07:31:23;2.30;;;1.83;;
18740;SDS011;9499;52.472;13.448;2023-05-07T07:33:50;2.30;;;1.83;;
18740;SDS011;9499;52.472;13.448;2023-05-07T07:36:16;2.80;;;2.20;;
18740;SDS011;9499;52.472;13.448;2023-05-07T07:38:44;4.13;;;2.10;;
18740;SDS011;9499;52.472;13.448;2023-05-07T07:41:10;3.10;;;2.03;;
18740;SDS011;9499;52.472;13.448;2023-05-07T07:43:37;3.77;;;3.00;;
18740;SDS011;9499;52.472;13.448;2023-05-07T07:46:03;3.20;;;1.70;;
18740;SDS011;9499;52.472;13.448;2023-05-07T07:48:30;3.97;;;2.30;;
18740;SDS011;9499;52.472;13.448;2023-05-07T07:50:56;3.00;;;2.23;;
18740;SDS011;9499;52.472;13.448;2023-05-07T07:53:23;3.37;;;3.13;;
18740;SDS011;9499;52.472;13.448;2023-05-07T07:55:51;3.00;;;2.10;;
18740;SDS011;9499;52.472;13.448;2023-05-07T07:58:17;4.27;;;2.80;;
18740;SDS011;9499;52.472;13.448;2023-05-07T08:00:44;1.77;;;1.67;;
18740;SDS011;9499;52.472;13.448;2023-05-07T08:03:12;5.40;;;2.47;;
18740;SDS011;9499;52.472;13.448;2023-05-07T08:05:39;3.90;;;3.47;;
18740;SDS011;9499;52.472;13.448;2023-05-07T08:08:05;2.93;;;2.20;;
18740;SDS011;9499;52.472;13.448;2023-05-07T08:10:32;4.53;;;3.10;;
18740;SDS011;9499;52.472;13.448;2023-05-07T08:13:04;3.23;;;2.43;;
18740;SDS011;9499;52.472;13.448;2023-05-07T08:15:31;1.70;;;1.60;;
18740;SDS011;9499;52.472;13.448;2023-05-07T08:17:57;2.60;;;2.30;;
18740;SDS011;9499;52.472;13.448;2023-05-07T08:20:25;4.13;;;1.80;;
18740;SDS011;9499;52.472;13.448;2023-05-07T08:22:51;1.70;;;1.60;;
18740;SDS011;9499;52.472;13.448;2023-05-07T08:25:18;1.93;;;1.77;;
18740;SDS011;9499;52.472;13.448;2023-05-07T08:27:44;1.53;;;1.43;;
18740;SDS011;9499;52.472;13.448;2023-05-07T08:30:13;2.83;;;1.70;;
18740;SDS011;9499;52.472;13.448;2023-05-07T08:32:40;2.83;;;2.20;;
18740;SDS011;9499;52.472;13.448;2023-05-07T08:35:07;1.63;;;1.53;;
18740;SDS011;9499;52.472;13.448;2023-05-07T08:37:34;1.97;;;1.77;;
18740;SDS011;9499;52.472;13.448;2023-05-07T08:40:00;1.73;;;1.53;;
18740;SDS011;9499;52.472;13.448;2023-05-07T08:42:27;1.50;;;1.30;;
18740;SDS011;9499;52.472;13.448;2023-05-07T08:44:55;6.23;;;2.50;;
18740;SDS011;9499;52.472;13.448;2023-05-07T08:47:29;2.20;;;1.67;;
18740;SDS011;9499;52.472;13.448;2023-05-07T08:50:01;3.00;;;2.10;;
18740;SDS011;9499;52.472;13.448;2023-05-07T08:52:28;2.23;;;1.73;;
18740;SDS011;9499;52.472;13.448;2023-05-07T08:54:54;3.23;;;2.50;;
18740;SDS011;9499;52.472;13.448;2023-05-07T08:57:21;1.63;;;1.53;;
18740;SDS011;9499;52.472;13.448;2023-05-07T08:59:49;2.60;;;2.00;;
18740;SDS011;9499;52.472;13.448;2023-05-07T09:02:15;3.00;;;1.77;;
18740;SDS011;9499;52.472;13.448;2023-05-07T09:04:44;2.13;;;1.60;;
18740;SDS011;9499;52.472;13.448;2023-05-07T09:07:10;1.67;;;1.57;;
18740;SDS011;9499;52.472;13.448;2023-05-07T09:09:37;2.07;;;1.80;;
18740;SDS011;9499;52.472;13.448;2023-05-07T09:12:03;1.87;;;1.77;;
18740;SDS011;9499;52.472;13.448;2023-05-07T09:14:30;2.40;;;1.93;;
18740;SDS011;9499;52.472;13.448;2023-05-07T09:16:57;2.00;;;1.70;;
18740;SDS011;9499;52.472;13.448;2023-05-07T09:19:23;1.53;;;1.40;;
18740;SDS011;9499;52.472;13.448;2023-05-07T09:21:58;1.53;;;1.30;;
18740;SDS011;9499;52.472;13.448;2023-05-07T09:24:25;1.47;;;1.23;;
18740;SDS011;9499;52.472;13.448;2023-05-07T09:26:53;1.70;;;1.60;;
18740;SDS011;9499;52.472;13.448;2023-05-07T09:29:20;3.90;;;1.57;;
18740;SDS011;9499;52.472;13.448;2023-05-07T09:31:47;2.97;;;1.87;;
18740;SDS011;9499;52.472;13.448;2023-05-07T09:34:13;1.77;;;1.30;;
18740;SDS011;9499;52.472;13.448;2023-05-07T09:36:39;2.30;;;1.47;;
18740;SDS011;9499;52.472;13.448;2023-05-07T09:39:07;2.27;;;1.40;;
18740;SDS011;9499;52.472;13.448;2023-05-07T09:41:42;4.27;;;1.97;;
18740;SDS011;9499;52.472;13.448;2023-05-07T09:44:09;2.83;;;1.80;;
18740;SDS011;9499;52.472;13.448;2023-05-07T09:46:36;1.90;;;1.63;;
18740;SDS011;9499;52.472;13.448;2023-05-07T09:49:05;2.07;;;1.87;;
18740;SDS011;9499;52.472;13.448;2023-05-07T09:51:36;1.63;;;1.30;;
18740;SDS011;9499;52.472;13.448;2023-05-07T09:54:10;2.20;;;1.93;;
18740;SDS011;9499;52.472;13.448;2023-05-07T09:56:37;1.70;;;1.17;;
18740;SDS011;9499;52.472;13.448;2023-05-07T09:59:06;1.57;;;1.43;;
18740;SDS011;9499;52.472;13.448;2023-05-07T10:01:35;1.50;;;1.30;;
18740;SDS011;9499;52.472;13.448;2023-05-07T10:04:02;3.00;;;1.63;;
18740;SDS011;9499;52.472;13.448;2023-05-07T10:06:29;3.53;;;1.60;;
18740;SDS011;9499;52.472;13.448;2023-05-07T10:08:56;2.47;;;1.53;;
18740;SDS011;9499;52.472;13.448;2023-05-07T10:11:25;1.70;;;1.30;;
18740;SDS011;9499;52.472;13.448;2023-05-07T10:13:52;1.30;;;1.10;;
18740;SDS011;9499;52.472;13.448;2023-05-07T10:16:18;2.20;;;1.40;;
18740;SDS011;9499;52.472;13.448;2023-05-07T10:18:46;1.50;;;1.33;;
18740;SDS011;9499;52.472;13.448;2023-05-07T10:21:15;2.40;;;1.47;;
18740;SDS011;9499;52.472;13.448;2023-05-07T10:23:43;1.30;;;1.00;;
18740;SDS011;9499;52.472;13.448;2023-05-07T10:26:11;1.33;;;0.90;;
18740;SDS011;9499;52.472;13.448;2023-05-07T10:28:42;1.97;;;1.03;;
18740;SDS011;9499;52.472;13.448;2023-05-07T10:34:15;1.50;;;1.10;;
18740;SDS011;9499;52.472;13.448;2023-05-07T10:36:45;1.80;;;1.43;;
18740;SDS011;9499;52.472;13.448;2023-05-07T10:39:12;2.33;;;1.47;;
18740;SDS011;9499;52.472;13.448;2023-05-07T10:41:39;1.90;;;1.30;;
18740;SDS011;9499;52.472;13.448;2023-05-07T10:44:07;1.50;;;1.17;;
18740;SDS011;9499;52.472;13.448;2023-05-07T10:46:33;1.67;;;1.33;;
18740;SDS011;9499;52.472;13.448;2023-05-07T10:49:06;1.83;;;1.23;;
18740;SDS011;9499;52.472;13.448;2023-05-07T10:51:35;1.67;;;1.43;;
18740;SDS011;9499;52.472;13.448;2023-05-07T10:54:18;1.67;;;1.07;;
18740;SDS011;9499;52.472;13.448;2023-05-07T10:56:45;1.40;;;1.10;;
18740;SDS011;9499;52.472;13.448;2023-05-07T11:02:07;2.57;;;1.77;;
18740;SDS011;9499;52.472;13.448;2023-05-07T11:04:36;1.70;;;1.50;;
18740;SDS011;9499;52.472;13.448;2023-05-07T11:07:21;3.50;;;1.10;;
18740;SDS011;9499;52.472;13.448;2023-05-07T11:09:54;2.47;;;1.40;;
18740;SDS011;9499;52.472;13.448;2023-05-07T11:15:31;2.43;;;1.50;;
18740;SDS011;9499;52.472;13.448;2023-05-07T11:18:03;2.30;;;1.17;;
18740;SDS011;9499;52.472;13.448;2023-05-07T11:20:44;1.77;;;1.40;;
18740;SDS011;9499;52.472;13.448;2023-05-07T11:26:23;5.67;;;1.10;;
18740;SDS011;9499;52.472;13.448;2023-05-07T11:28:50;1.50;;;1.00;;
18740;SDS011;9499;52.472;13.448;2023-05-07T11:31:21;1.60;;;1.40;;
18740;SDS011;9499;52.472;13.448;2023-05-07T11:33:51;1.50;;;1.00;;
18740;SDS011;9499;52.472;13.448;2023-05-07T11:36:18;2.03;;;1.23;;
18740;SDS011;9499;52.472;13.448;2023-05-07T11:38:45;1.30;;;1.00;;
18740;SDS011;9499;52.472;13.448;2023-05-07T11:41:12;1.50;;;1.23;;
18740;SDS011;9499;52.472;13.448;2023-05-07T11:43:46;1.67;;;1.30;;
18740;SDS011;9499;52.472;13.448;2023-05-07T11:46:24;1.83;;;1.03;;
18740;SDS011;9499;52.472;13.448;2023-05-07T11:48:51;1.40;;;0.90;;
18740;SDS011;9499;52.472;13.448;2023-05-07T11:51:21;2.33;;;1.50;;
18740;SDS011;9499;52.472;13.448;2023-05-07T11:53:48;1.80;;;1.20;;
18740;SDS011;9499;52.472;13.448;2023-05-07T11:56:16;1.30;;;1.03;;
18740;SDS011;9499;52.472;13.448;2023-05-07T11:58:44;1.50;;;1.17;;
18740;SDS011;9499;52.472;13.448;2023-05-07T12:01:12;1.60;;;1.00;;
18740;SDS011;9499;52.472;13.448;2023-05-07T12:03:41;1.20;;;0.80;;
18740;SDS011;9499;52.472;13.448;2023-05-07T12:06:10;2.30;;;1.43;;
18740;SDS011;9499;52.472;13.448;2023-05-07T12:08:37;1.80;;;1.13;;
18740;SDS011;9499;52.472;13.448;2023-05-07T12:11:06;1.90;;;1.23;;
18740;SDS011;9499;52.472;13.448;2023-05-07T12:13:34;1.43;;;0.87;;
18740;SDS011;9499;52.472;13.448;2023-05-07T12:16:01;3.50;;;1.70;;
18740;SDS011;9499;52.472;13.448;2023-05-07T12:18:28;2.30;;;1.30;;
18740;SDS011;9499;52.472;13.448;2023-05-07T12:20:57;1.30;;;0.93;;
18740;SDS011;9499;52.472;13.448;2023-05-07T12:23:24;2.70;;;1.30;;
18740;SDS011;9499;52.472;13.448;2023-05-07T12:25:52;1.33;;;0.93;;
18740;SDS011;9499;52.472;13.448;2023-05-07T12:28:19;1.30;;;1.00;;
18740;SDS011;9499;52.472;13.448;2023-05-07T12:30:47;1.50;;;0.83;;
18740;SDS011;9499;52.472;13.448;2023-05-07T12:33:15;1.50;;;1.10;;
18740;SDS011;9499;52.472;13.448;2023-05-07T12:35:43;1.70;;;0.90;;
18740;SDS011;9499;52.472;13.448;2023-05-07T12:38:12;2.03;;;1.10;;
18740;SDS011;9499;52.472;13.448;2023-05-07T12:40:39;1.27;;;0.73;;
18740;SDS011;9499;52.472;13.448;2023-05-07T12:43:07;1.67;;;0.90;;
18740;SDS011;9499;52.472;13.448;2023-05-07T12:45:40;1.77;;;1.00;;
18740;SDS011;9499;52.472;13.448;2023-05-07T12:48:09;1.63;;;1.00;;
18740;SDS011;9499;52.472;13.448;2023-05-07T12:50:36;1.30;;;0.70;;
18740;SDS011;9499;52.472;13.448;2023-05-07T12:53:03;1.83;;;0.90;;
18740;SDS011;9499;52.472;13.448;2023-05-07T12:55:32;1.57;;;0.80;;
18740;SDS011;9499;52.472;13.448;2023-05-07T12:58:07;1.90;;;1.13;;
18740;SDS011;9499;52.472;13.448;2023-05-07T13:00:34;2.07;;;1.30;;
18740;SDS011;9499;52.472;13.448;2023-05-07T13:03:01;2.00;;;1.10;;
18740;SDS011;9499;52.472;13.448;2023-05-07T13:05:28;1.83;;;1.10;;
18740;SDS011;9499;52.472;13.448;2023-05-07T13:07:55;1.37;;;0.80;;
18740;SDS011;9499;52.472;13.448;2023-05-07T13:10:22;1.63;;;0.70;;
18740;SDS011;9499;52.472;13.448;2023-05-07T13:12:50;1.47;;;0.90;;
18740;SDS011;9499;52.472;13.448;2023-05-07T13:15:16;1.50;;;0.90;;
18740;SDS011;9499;52.472;13.448;2023-05-07T13:17:43;1.50;;;0.87;;
18740;SDS011;9499;52.472;13.448;2023-05-07T13:20:10;1.97;;;0.97;;
18740;SDS011;9499;52.472;13.448;2023-05-07T13:22:37;3.73;;;1.00;;
18740;SDS011;9499;52.472;13.448;2023-05-07T13:25:04;1.30;;;0.63;;
18740;SDS011;9499;52.472;13.448;2023-05-07T13:27:31;1.80;;;1.07;;
18740;SDS011;9499;52.472;13.448;2023-05-07T13:30:01;1.60;;;1.10;;
18740;SDS011;9499;52.472;13.448;2023-05-07T13:32:29;1.20;;;0.63;;
18740;SDS011;9499;52.472;13.448;2023-05-07T13:34:56;2.40;;;1.23;;
18740;SDS011;9499;52.472;13.448;2023-05-07T13:37:22;1.80;;;1.30;;
18740;SDS011;9499;52.472;13.448;2023-05-07T13:39:49;5.90;;;1.20;;
18740;SDS011;9499;52.472;13.448;2023-05-07T13:42:16;1.63;;;0.90;;
18740;SDS011;9499;52.472;13.448;2023-05-07T13:44:42;1.80;;;0.80;;
18740;SDS011;9499;52.472;13.448;2023-05-07T13:47:11;1.40;;;0.80;;
18740;SDS011;9499;52.472;13.448;2023-05-07T13:49:38;1.50;;;1.00;;
18740;SDS011;9499;52.472;13.448;2023-05-07T13:52:04;1.60;;;0.73;;
18740;SDS011;9499;52.472;13.448;2023-05-07T13:54:30;1.33;;;0.90;;
18740;SDS011;9499;52.472;13.448;2023-05-07T13:56:57;1.50;;;0.73;;
18740;SDS011;9499;52.472;13.448;2023-05-07T13:59:23;1.70;;;0.73;;
18740;SDS011;9499;52.472;13.448;2023-05-07T14:01:50;2.07;;;1.30;;
18740;SDS011;9499;52.472;13.448;2023-05-07T14:04:18;1.30;;;0.90;;
18740;SDS011;9499;52.472;13.448;2023-05-07T14:06:44;1.30;;;0.80;;
18740;SDS011;9499;52.472;13.448;2023-05-07T14:09:11;1.53;;;0.80;;
18740;SDS011;9499;52.472;13.448;2023-05-07T14:11:38;1.33;;;0.80;;
18740;SDS011;9499;52.472;13.448;2023-05-07T14:14:04;1.40;;;0.83;;
18740;SDS011;9499;52.472;13.448;2023-05-07T14:16:31;1.60;;;1.00;;
18740;SDS011;9499;52.472;13.448;2023-05-07T14:18:57;1.53;;;0.80;;
18740;SDS011;9499;52.472;13.448;2023-05-07T14:21:25;1.83;;;0.80;;
18740;SDS011;9499;52.472;13.448;2023-05-07T14:23:52;2.50;;;1.00;;
18740;SDS011;9499;52.472;13.448;2023-05-07T14:26:18;1.20;;;0.60;;
18740;SDS011;9499;52.472;13.448;2023-05-07T14:28:45;1.30;;;0.50;;
18740;SDS011;9499;52.472;13.448;2023-05-07T14:31:12;1.30;;;0.60;;
18740;SDS011;9499;52.472;13.448;2023-05-07T14:33:38;1.53;;;0.93;;
18740;SDS011;9499;52.472;13.448;2023-05-07T14:36:05;1.40;;;0.90;;
18740;SDS011;9499;52.472;13.448;2023-05-07T14:38:33;1.20;;;0.60;;
18740;SDS011;9499;52.472;13.448;2023-05-07T14:40:59;1.60;;;0.70;;
18740;SDS011;9499;52.472;13.448;2023-05-07T14:43:26;1.17;;;0.50;;
18740;SDS011;9499;52.472;13.448;2023-05-07T14:45:52;1.30;;;0.60;;
18740;SDS011;9499;52.472;13.448;2023-05-07T14:48:19;1.40;;;0.50;;
18740;SDS011;9499;52.472;13.448;2023-05-07T14:50:46;1.40;;;0.67;;
18740;SDS011;9499;52.472;13.448;2023-05-07T14:53:13;1.60;;;0.77;;
18740;SDS011;9499;52.472;13.448;2023-05-07T14:55:40;1.47;;;0.80;;
18740;SDS011;9499;52.472;13.448;2023-05-07T14:58:07;1.50;;;0.90;;
18740;SDS011;9499;52.472;13.448;2023-05-07T15:00:34;1.53;;;0.80;;